<?xml version="1.0" encoding="UTF-8" standalone="no" ?>
<gpx xmlns="http://www.topografix.com/GPX/1/1" xmlns:xsi="http://www.w3.org/2001/XMLSchema-instance" xsi:schemaLocation="http://www.topografix.com/GPX/1/1 http://www.topografix.com/GPX/1/1/gpx.xsd" version="1.1" creator="VisuGPX - https://www.visugpx.com">
  <metadata>
    <name>VIELLE -ADOUR balade</name>
  </metadata>
  <trk>
    <name><![CDATA[VIELLE -ADOUR balade]]></name>
    <trkseg>
      <trkpt lat="43.14565" lon="0.11733">
        <ele>465</ele>
        <time>2022-06-28T08:58:43Z</time>
      </trkpt>
      <trkpt lat="43.14496" lon="0.11812">
        <ele>465</ele>
        <time>2022-06-28T09:01:02Z</time>
      </trkpt>
      <trkpt lat="43.14532" lon="0.11817">
        <ele>439</ele>
        <time>2022-06-28T09:01:18Z</time>
      </trkpt>
      <trkpt lat="43.1455" lon="0.11836">
        <ele>417</ele>
        <time>2022-06-28T09:01:42Z</time>
      </trkpt>
      <trkpt lat="43.14551" lon="0.11867">
        <ele>417</ele>
        <time>2022-06-28T09:02:15Z</time>
      </trkpt>
      <trkpt lat="43.14555" lon="0.11898">
        <ele>419</ele>
        <time>2022-06-28T09:02:46Z</time>
      </trkpt>
      <trkpt lat="43.14566" lon="0.11926">
        <ele>425</ele>
        <time>2022-06-28T09:03:25Z</time>
      </trkpt>
      <trkpt lat="43.14563" lon="0.11957">
        <ele>426</ele>
        <time>2022-06-28T09:04:01Z</time>
      </trkpt>
      <trkpt lat="43.14552" lon="0.11985">
        <ele>427</ele>
        <time>2022-06-28T09:04:16Z</time>
      </trkpt>
      <trkpt lat="43.14534" lon="0.12006">
        <ele>428</ele>
        <time>2022-06-28T09:04:55Z</time>
      </trkpt>
      <trkpt lat="43.14512" lon="0.12025">
        <ele>428</ele>
        <time>2022-06-28T09:05:04Z</time>
      </trkpt>
      <trkpt lat="43.14492" lon="0.12042">
        <ele>428</ele>
        <time>2022-06-28T09:05:15Z</time>
      </trkpt>
      <trkpt lat="43.14473" lon="0.12063">
        <ele>428</ele>
        <time>2022-06-28T09:06:07Z</time>
      </trkpt>
      <trkpt lat="43.14451" lon="0.12055">
        <ele>443</ele>
        <time>2022-06-28T09:06:59Z</time>
      </trkpt>
      <trkpt lat="43.14432" lon="0.1204">
        <ele>450</ele>
        <time>2022-06-28T09:07:52Z</time>
      </trkpt>
      <trkpt lat="43.14416" lon="0.12017">
        <ele>447</ele>
        <time>2022-06-28T09:08:18Z</time>
      </trkpt>
      <trkpt lat="43.14394" lon="0.12004">
        <ele>452</ele>
        <time>2022-06-28T09:08:40Z</time>
      </trkpt>
      <trkpt lat="43.14371" lon="0.11997">
        <ele>462</ele>
        <time>2022-06-28T09:08:59Z</time>
      </trkpt>
      <trkpt lat="43.14348" lon="0.11988">
        <ele>469</ele>
        <time>2022-06-28T09:09:59Z</time>
      </trkpt>
      <trkpt lat="43.14335" lon="0.11963">
        <ele>468</ele>
        <time>2022-06-28T09:11:17Z</time>
      </trkpt>
      <trkpt lat="43.14322" lon="0.11936">
        <ele>475</ele>
        <time>2022-06-28T09:11:38Z</time>
      </trkpt>
      <trkpt lat="43.14306" lon="0.11913">
        <ele>467</ele>
        <time>2022-06-28T09:12:02Z</time>
      </trkpt>
      <trkpt lat="43.14297" lon="0.11885">
        <ele>459</ele>
        <time>2022-06-28T09:12:35Z</time>
      </trkpt>
      <trkpt lat="43.14278" lon="0.11868">
        <ele>454</ele>
        <time>2022-06-28T09:13:09Z</time>
      </trkpt>
      <trkpt lat="43.14256" lon="0.11876">
        <ele>456</ele>
        <time>2022-06-28T09:13:41Z</time>
      </trkpt>
      <trkpt lat="43.14249" lon="0.11906">
        <ele>458</ele>
        <time>2022-06-28T09:14:11Z</time>
      </trkpt>
      <trkpt lat="43.14243" lon="0.11936">
        <ele>467</ele>
        <time>2022-06-28T09:16:17Z</time>
      </trkpt>
      <trkpt lat="43.14232" lon="0.11964">
        <ele>470</ele>
        <time>2022-06-28T09:16:49Z</time>
      </trkpt>
      <trkpt lat="43.14233" lon="0.11995">
        <ele>474</ele>
        <time>2022-06-28T09:17:14Z</time>
      </trkpt>
      <trkpt lat="43.14237" lon="0.12025">
        <ele>476</ele>
        <time>2022-06-28T09:17:42Z</time>
      </trkpt>
      <trkpt lat="43.14254" lon="0.12082">
        <ele>473</ele>
        <time>2022-06-28T09:18:43Z</time>
      </trkpt>
      <trkpt lat="43.14261" lon="0.12111">
        <ele>482</ele>
        <time>2022-06-28T09:19:15Z</time>
      </trkpt>
      <trkpt lat="43.1426" lon="0.12172">
        <ele>488</ele>
        <time>2022-06-28T09:20:23Z</time>
      </trkpt>
      <trkpt lat="43.14259" lon="0.12203">
        <ele>486</ele>
        <time>2022-06-28T09:20:45Z</time>
      </trkpt>
      <trkpt lat="43.14255" lon="0.12235">
        <ele>490</ele>
        <time>2022-06-28T09:21:11Z</time>
      </trkpt>
      <trkpt lat="43.14267" lon="0.12295">
        <ele>488</ele>
        <time>2022-06-28T09:23:23Z</time>
      </trkpt>
      <trkpt lat="43.14276" lon="0.12325">
        <ele>489</ele>
        <time>2022-06-28T09:23:46Z</time>
      </trkpt>
      <trkpt lat="43.14283" lon="0.12355">
        <ele>493</ele>
        <time>2022-06-28T09:24:18Z</time>
      </trkpt>
      <trkpt lat="43.14299" lon="0.12377">
        <ele>495</ele>
        <time>2022-06-28T09:24:44Z</time>
      </trkpt>
      <trkpt lat="43.14297" lon="0.12408">
        <ele>502</ele>
        <time>2022-06-28T09:25:37Z</time>
      </trkpt>
      <trkpt lat="43.14296" lon="0.12469">
        <ele>500</ele>
        <time>2022-06-28T09:26:35Z</time>
      </trkpt>
      <trkpt lat="43.14295" lon="0.125">
        <ele>504</ele>
        <time>2022-06-28T09:27:08Z</time>
      </trkpt>
      <trkpt lat="43.14301" lon="0.1253">
        <ele>508</ele>
        <time>2022-06-28T09:27:34Z</time>
      </trkpt>
      <trkpt lat="43.14294" lon="0.1256">
        <ele>511</ele>
        <time>2022-06-28T09:28:00Z</time>
      </trkpt>
      <trkpt lat="43.14285" lon="0.12588">
        <ele>513</ele>
        <time>2022-06-28T09:28:24Z</time>
      </trkpt>
      <trkpt lat="43.14279" lon="0.1262">
        <ele>509</ele>
        <time>2022-06-28T09:28:52Z</time>
      </trkpt>
      <trkpt lat="43.1427" lon="0.12649">
        <ele>511</ele>
        <time>2022-06-28T09:29:17Z</time>
      </trkpt>
      <trkpt lat="43.14267" lon="0.1268">
        <ele>516</ele>
        <time>2022-06-28T09:29:42Z</time>
      </trkpt>
      <trkpt lat="43.14262" lon="0.1271">
        <ele>518</ele>
        <time>2022-06-28T09:30:16Z</time>
      </trkpt>
      <trkpt lat="43.14252" lon="0.12738">
        <ele>511</ele>
        <time>2022-06-28T09:31:54Z</time>
      </trkpt>
      <trkpt lat="43.14246" lon="0.12768">
        <ele>513</ele>
        <time>2022-06-28T09:32:22Z</time>
      </trkpt>
      <trkpt lat="43.14238" lon="0.12798">
        <ele>515</ele>
        <time>2022-06-28T09:32:50Z</time>
      </trkpt>
      <trkpt lat="43.1424" lon="0.1283">
        <ele>514</ele>
        <time>2022-06-28T09:33:19Z</time>
      </trkpt>
      <trkpt lat="43.14236" lon="0.1286">
        <ele>521</ele>
        <time>2022-06-28T09:33:45Z</time>
      </trkpt>
      <trkpt lat="43.14228" lon="0.1289">
        <ele>524</ele>
        <time>2022-06-28T09:34:18Z</time>
      </trkpt>
      <trkpt lat="43.14229" lon="0.12921">
        <ele>532</ele>
        <time>2022-06-28T09:34:56Z</time>
      </trkpt>
      <trkpt lat="43.14221" lon="0.1295">
        <ele>538</ele>
        <time>2022-06-28T09:35:24Z</time>
      </trkpt>
      <trkpt lat="43.14215" lon="0.1298">
        <ele>538</ele>
        <time>2022-06-28T09:35:48Z</time>
      </trkpt>
      <trkpt lat="43.1421" lon="0.1301">
        <ele>541</ele>
        <time>2022-06-28T09:36:13Z</time>
      </trkpt>
      <trkpt lat="43.14214" lon="0.13071">
        <ele>540</ele>
        <time>2022-06-28T09:38:15Z</time>
      </trkpt>
      <trkpt lat="43.14211" lon="0.13103">
        <ele>536</ele>
        <time>2022-06-28T09:38:39Z</time>
      </trkpt>
      <trkpt lat="43.14196" lon="0.13127">
        <ele>538</ele>
        <time>2022-06-28T09:39:34Z</time>
      </trkpt>
      <trkpt lat="43.14182" lon="0.13153">
        <ele>541</ele>
        <time>2022-06-28T09:39:59Z</time>
      </trkpt>
      <trkpt lat="43.14184" lon="0.13184">
        <ele>541</ele>
        <time>2022-06-28T09:40:28Z</time>
      </trkpt>
      <trkpt lat="43.14176" lon="0.13212">
        <ele>543</ele>
        <time>2022-06-28T09:40:50Z</time>
      </trkpt>
      <trkpt lat="43.14172" lon="0.13244">
        <ele>544</ele>
        <time>2022-06-28T09:41:13Z</time>
      </trkpt>
      <trkpt lat="43.14161" lon="0.13272">
        <ele>550</ele>
        <time>2022-06-28T09:41:40Z</time>
      </trkpt>
      <trkpt lat="43.14155" lon="0.13302">
        <ele>552</ele>
        <time>2022-06-28T09:42:03Z</time>
      </trkpt>
      <trkpt lat="43.14144" lon="0.13329">
        <ele>547</ele>
        <time>2022-06-28T09:42:35Z</time>
      </trkpt>
      <trkpt lat="43.14121" lon="0.13334">
        <ele>543</ele>
        <time>2022-06-28T09:43:06Z</time>
      </trkpt>
      <trkpt lat="43.14098" lon="0.13327">
        <ele>546</ele>
        <time>2022-06-28T09:43:37Z</time>
      </trkpt>
      <trkpt lat="43.14075" lon="0.13321">
        <ele>543</ele>
        <time>2022-06-28T09:44:20Z</time>
      </trkpt>
      <trkpt lat="43.14054" lon="0.1331">
        <ele>537</ele>
        <time>2022-06-28T09:44:44Z</time>
      </trkpt>
      <trkpt lat="43.14033" lon="0.13296">
        <ele>538</ele>
        <time>2022-06-28T09:45:06Z</time>
      </trkpt>
      <trkpt lat="43.14056" lon="0.13299">
        <ele>549</ele>
        <time>2022-06-28T09:51:05Z</time>
      </trkpt>
      <trkpt lat="43.14076" lon="0.13314">
        <ele>550</ele>
        <time>2022-06-28T09:51:32Z</time>
      </trkpt>
      <trkpt lat="43.14098" lon="0.13322">
        <ele>548</ele>
        <time>2022-06-28T09:51:57Z</time>
      </trkpt>
      <trkpt lat="43.14121" lon="0.13329">
        <ele>547</ele>
        <time>2022-06-28T09:52:27Z</time>
      </trkpt>
      <trkpt lat="43.14144" lon="0.13328">
        <ele>539</ele>
        <time>2022-06-28T09:52:56Z</time>
      </trkpt>
      <trkpt lat="43.14151" lon="0.13298">
        <ele>546</ele>
        <time>2022-06-28T09:53:24Z</time>
      </trkpt>
      <trkpt lat="43.14164" lon="0.13272">
        <ele>554</ele>
        <time>2022-06-28T09:53:54Z</time>
      </trkpt>
      <trkpt lat="43.14187" lon="0.13267">
        <ele>545</ele>
        <time>2022-06-28T09:54:53Z</time>
      </trkpt>
      <trkpt lat="43.14207" lon="0.13281">
        <ele>543</ele>
        <time>2022-06-28T09:55:17Z</time>
      </trkpt>
      <trkpt lat="43.14229" lon="0.13288">
        <ele>538</ele>
        <time>2022-06-28T09:55:43Z</time>
      </trkpt>
      <trkpt lat="43.14251" lon="0.13297">
        <ele>533</ele>
        <time>2022-06-28T09:56:10Z</time>
      </trkpt>
      <trkpt lat="43.14272" lon="0.13308">
        <ele>530</ele>
        <time>2022-06-28T09:56:42Z</time>
      </trkpt>
      <trkpt lat="43.14257" lon="0.13366">
        <ele>531</ele>
        <time>2022-06-28T09:57:45Z</time>
      </trkpt>
      <trkpt lat="43.14248" lon="0.13395">
        <ele>531</ele>
        <time>2022-06-28T09:58:12Z</time>
      </trkpt>
      <trkpt lat="43.14244" lon="0.13426">
        <ele>529</ele>
        <time>2022-06-28T09:58:35Z</time>
      </trkpt>
      <trkpt lat="43.14233" lon="0.13453">
        <ele>529</ele>
        <time>2022-06-28T09:58:58Z</time>
      </trkpt>
      <trkpt lat="43.14227" lon="0.13483">
        <ele>531</ele>
        <time>2022-06-28T09:59:34Z</time>
      </trkpt>
      <trkpt lat="43.14227" lon="0.13514">
        <ele>524</ele>
        <time>2022-06-28T09:59:56Z</time>
      </trkpt>
      <trkpt lat="43.14222" lon="0.13545">
        <ele>520</ele>
        <time>2022-06-28T10:00:28Z</time>
      </trkpt>
      <trkpt lat="43.14224" lon="0.13577">
        <ele>527</ele>
        <time>2022-06-28T10:01:00Z</time>
      </trkpt>
      <trkpt lat="43.14218" lon="0.13608">
        <ele>531</ele>
        <time>2022-06-28T10:01:19Z</time>
      </trkpt>
      <trkpt lat="43.14218" lon="0.13639">
        <ele>525</ele>
        <time>2022-06-28T10:01:52Z</time>
      </trkpt>
      <trkpt lat="43.1421" lon="0.13668">
        <ele>527</ele>
        <time>2022-06-28T10:02:12Z</time>
      </trkpt>
      <trkpt lat="43.14207" lon="0.13699">
        <ele>523</ele>
        <time>2022-06-28T10:02:35Z</time>
      </trkpt>
      <trkpt lat="43.14204" lon="0.1373">
        <ele>520</ele>
        <time>2022-06-28T10:02:59Z</time>
      </trkpt>
      <trkpt lat="43.14203" lon="0.13761">
        <ele>520</ele>
        <time>2022-06-28T10:03:27Z</time>
      </trkpt>
      <trkpt lat="43.14203" lon="0.13793">
        <ele>516</ele>
        <time>2022-06-28T10:03:55Z</time>
      </trkpt>
      <trkpt lat="43.14203" lon="0.13824">
        <ele>518</ele>
        <time>2022-06-28T10:04:47Z</time>
      </trkpt>
      <trkpt lat="43.14204" lon="0.13855">
        <ele>515</ele>
        <time>2022-06-28T10:05:16Z</time>
      </trkpt>
      <trkpt lat="43.14203" lon="0.13886">
        <ele>513</ele>
        <time>2022-06-28T10:05:37Z</time>
      </trkpt>
      <trkpt lat="43.14207" lon="0.13917">
        <ele>512</ele>
        <time>2022-06-28T10:05:57Z</time>
      </trkpt>
      <trkpt lat="43.14211" lon="0.13948">
        <ele>510</ele>
        <time>2022-06-28T10:06:29Z</time>
      </trkpt>
      <trkpt lat="43.14221" lon="0.13976">
        <ele>510</ele>
        <time>2022-06-28T10:06:54Z</time>
      </trkpt>
      <trkpt lat="43.14224" lon="0.14008">
        <ele>506</ele>
        <time>2022-06-28T10:07:16Z</time>
      </trkpt>
      <trkpt lat="43.1422" lon="0.14039">
        <ele>503</ele>
        <time>2022-06-28T10:07:45Z</time>
      </trkpt>
      <trkpt lat="43.14218" lon="0.14072">
        <ele>505</ele>
        <time>2022-06-28T10:08:10Z</time>
      </trkpt>
      <trkpt lat="43.14219" lon="0.14103">
        <ele>500</ele>
        <time>2022-06-28T10:08:33Z</time>
      </trkpt>
      <trkpt lat="43.14222" lon="0.14134">
        <ele>494</ele>
        <time>2022-06-28T10:08:56Z</time>
      </trkpt>
      <trkpt lat="43.14221" lon="0.14165">
        <ele>492</ele>
        <time>2022-06-28T10:09:32Z</time>
      </trkpt>
      <trkpt lat="43.14199" lon="0.14159">
        <ele>483</ele>
        <time>2022-06-28T10:10:11Z</time>
      </trkpt>
      <trkpt lat="43.14179" lon="0.14144">
        <ele>484</ele>
        <time>2022-06-28T10:10:35Z</time>
      </trkpt>
      <trkpt lat="43.14162" lon="0.14122">
        <ele>485</ele>
        <time>2022-06-28T10:11:01Z</time>
      </trkpt>
      <trkpt lat="43.14147" lon="0.14097">
        <ele>483</ele>
        <time>2022-06-28T10:11:31Z</time>
      </trkpt>
      <trkpt lat="43.14131" lon="0.14075">
        <ele>485</ele>
        <time>2022-06-28T10:11:52Z</time>
      </trkpt>
      <trkpt lat="43.14116" lon="0.14052">
        <ele>482</ele>
        <time>2022-06-28T10:12:27Z</time>
      </trkpt>
      <trkpt lat="43.14095" lon="0.1404">
        <ele>483</ele>
        <time>2022-06-28T10:12:48Z</time>
      </trkpt>
      <trkpt lat="43.14072" lon="0.14037">
        <ele>484</ele>
        <time>2022-06-28T10:13:12Z</time>
      </trkpt>
      <trkpt lat="43.1405" lon="0.14042">
        <ele>478</ele>
        <time>2022-06-28T10:13:54Z</time>
      </trkpt>
      <trkpt lat="43.14027" lon="0.14041">
        <ele>477</ele>
        <time>2022-06-28T10:14:23Z</time>
      </trkpt>
      <trkpt lat="43.14004" lon="0.14043">
        <ele>473</ele>
        <time>2022-06-28T10:14:46Z</time>
      </trkpt>
      <trkpt lat="43.13985" lon="0.14061">
        <ele>468</ele>
        <time>2022-06-28T10:15:07Z</time>
      </trkpt>
      <trkpt lat="43.13974" lon="0.14089">
        <ele>470</ele>
        <time>2022-06-28T10:15:45Z</time>
      </trkpt>
      <trkpt lat="43.13954" lon="0.14144">
        <ele>466</ele>
        <time>2022-06-28T10:16:30Z</time>
      </trkpt>
      <trkpt lat="43.13948" lon="0.14174">
        <ele>463</ele>
        <time>2022-06-28T10:17:01Z</time>
      </trkpt>
      <trkpt lat="43.13939" lon="0.14203">
        <ele>465</ele>
        <time>2022-06-28T10:17:41Z</time>
      </trkpt>
      <trkpt lat="43.13921" lon="0.14222">
        <ele>452</ele>
        <time>2022-06-28T10:18:24Z</time>
      </trkpt>
      <trkpt lat="43.13898" lon="0.14219">
        <ele>446</ele>
        <time>2022-06-28T10:18:56Z</time>
      </trkpt>
      <trkpt lat="43.13875" lon="0.14219">
        <ele>451</ele>
        <time>2022-06-28T10:19:21Z</time>
      </trkpt>
      <trkpt lat="43.13853" lon="0.14224">
        <ele>452</ele>
        <time>2022-06-28T10:19:46Z</time>
      </trkpt>
      <trkpt lat="43.13831" lon="0.14235">
        <ele>453</ele>
        <time>2022-06-28T10:20:21Z</time>
      </trkpt>
      <trkpt lat="43.13811" lon="0.14249">
        <ele>448</ele>
        <time>2022-06-28T10:21:17Z</time>
      </trkpt>
      <trkpt lat="43.13775" lon="0.14274">
        <ele>441</ele>
        <time>2022-06-28T10:22:38Z</time>
      </trkpt>
      <trkpt lat="43.1375" lon="0.14326">
        <ele>440</ele>
        <time>2022-06-28T10:25:04Z</time>
      </trkpt>
      <trkpt lat="43.13744" lon="0.14356">
        <ele>442</ele>
        <time>2022-06-28T10:25:25Z</time>
      </trkpt>
      <trkpt lat="43.13731" lon="0.14415">
        <ele>438</ele>
        <time>2022-06-28T10:26:09Z</time>
      </trkpt>
      <trkpt lat="43.13729" lon="0.14446">
        <ele>436</ele>
        <time>2022-06-28T10:26:33Z</time>
      </trkpt>
      <trkpt lat="43.13719" lon="0.14474">
        <ele>438</ele>
        <time>2022-06-28T10:26:53Z</time>
      </trkpt>
      <trkpt lat="43.13714" lon="0.14505">
        <ele>441</ele>
        <time>2022-06-28T10:27:20Z</time>
      </trkpt>
      <trkpt lat="43.13719" lon="0.14536">
        <ele>438</ele>
        <time>2022-06-28T10:27:44Z</time>
      </trkpt>
      <trkpt lat="43.13719" lon="0.14567">
        <ele>436</ele>
        <time>2022-06-28T10:28:05Z</time>
      </trkpt>
      <trkpt lat="43.13722" lon="0.14599">
        <ele>431</ele>
        <time>2022-06-28T10:29:19Z</time>
      </trkpt>
      <trkpt lat="43.13725" lon="0.1463">
        <ele>426</ele>
        <time>2022-06-28T10:29:58Z</time>
      </trkpt>
      <trkpt lat="43.1373" lon="0.1466">
        <ele>428</ele>
        <time>2022-06-28T10:30:23Z</time>
      </trkpt>
      <trkpt lat="43.13737" lon="0.1469">
        <ele>429</ele>
        <time>2022-06-28T10:30:59Z</time>
      </trkpt>
      <trkpt lat="43.13749" lon="0.14716">
        <ele>430</ele>
        <time>2022-06-28T10:31:54Z</time>
      </trkpt>
      <trkpt lat="43.13761" lon="0.14744">
        <ele>429</ele>
        <time>2022-06-28T10:32:17Z</time>
      </trkpt>
      <trkpt lat="43.13779" lon="0.14764">
        <ele>425</ele>
        <time>2022-06-28T10:32:41Z</time>
      </trkpt>
      <trkpt lat="43.13799" lon="0.1478">
        <ele>422</ele>
        <time>2022-06-28T10:33:10Z</time>
      </trkpt>
      <trkpt lat="43.1382" lon="0.14791">
        <ele>419</ele>
        <time>2022-06-28T10:33:39Z</time>
      </trkpt>
      <trkpt lat="43.13841" lon="0.14806">
        <ele>422</ele>
        <time>2022-06-28T10:34:01Z</time>
      </trkpt>
      <trkpt lat="43.13861" lon="0.14819">
        <ele>427</ele>
        <time>2022-06-28T10:34:22Z</time>
      </trkpt>
      <trkpt lat="43.13883" lon="0.14834">
        <ele>418</ele>
        <time>2022-06-28T10:34:56Z</time>
      </trkpt>
      <trkpt lat="43.13904" lon="0.14848">
        <ele>417</ele>
        <time>2022-06-28T10:35:26Z</time>
      </trkpt>
      <trkpt lat="43.13924" lon="0.14864">
        <ele>420</ele>
        <time>2022-06-28T10:35:49Z</time>
      </trkpt>
      <trkpt lat="43.13944" lon="0.14879">
        <ele>426</ele>
        <time>2022-06-28T10:36:15Z</time>
      </trkpt>
      <trkpt lat="43.13966" lon="0.14887">
        <ele>424</ele>
        <time>2022-06-28T10:36:37Z</time>
      </trkpt>
      <trkpt lat="43.13986" lon="0.14902">
        <ele>424</ele>
        <time>2022-06-28T10:37:00Z</time>
      </trkpt>
      <trkpt lat="43.14006" lon="0.14918">
        <ele>424</ele>
        <time>2022-06-28T10:37:28Z</time>
      </trkpt>
      <trkpt lat="43.14028" lon="0.1493">
        <ele>419</ele>
        <time>2022-06-28T10:38:17Z</time>
      </trkpt>
      <trkpt lat="43.14049" lon="0.14943">
        <ele>418</ele>
        <time>2022-06-28T10:38:43Z</time>
      </trkpt>
      <trkpt lat="43.14072" lon="0.14943">
        <ele>414</ele>
        <time>2022-06-28T10:39:41Z</time>
      </trkpt>
      <trkpt lat="43.14083" lon="0.14914">
        <ele>415</ele>
        <time>2022-06-28T10:40:02Z</time>
      </trkpt>
      <trkpt lat="43.14093" lon="0.14885">
        <ele>426</ele>
        <time>2022-06-28T10:40:32Z</time>
      </trkpt>
      <trkpt lat="43.1411" lon="0.14864">
        <ele>433</ele>
        <time>2022-06-28T10:41:08Z</time>
      </trkpt>
      <trkpt lat="43.14133" lon="0.14858">
        <ele>435</ele>
        <time>2022-06-28T10:41:36Z</time>
      </trkpt>
      <trkpt lat="43.14155" lon="0.14865">
        <ele>434</ele>
        <time>2022-06-28T10:42:03Z</time>
      </trkpt>
      <trkpt lat="43.14177" lon="0.14873">
        <ele>437</ele>
        <time>2022-06-28T10:42:38Z</time>
      </trkpt>
      <trkpt lat="43.142" lon="0.14877">
        <ele>436</ele>
        <time>2022-06-28T10:44:08Z</time>
      </trkpt>
      <trkpt lat="43.14223" lon="0.14881">
        <ele>437</ele>
        <time>2022-06-28T10:44:36Z</time>
      </trkpt>
      <trkpt lat="43.14245" lon="0.14885">
        <ele>437</ele>
        <time>2022-06-28T10:45:01Z</time>
      </trkpt>
      <trkpt lat="43.14268" lon="0.1489">
        <ele>437</ele>
        <time>2022-06-28T10:45:25Z</time>
      </trkpt>
      <trkpt lat="43.1429" lon="0.14898">
        <ele>438</ele>
        <time>2022-06-28T10:45:48Z</time>
      </trkpt>
      <trkpt lat="43.14312" lon="0.14905">
        <ele>442</ele>
        <time>2022-06-28T10:46:12Z</time>
      </trkpt>
      <trkpt lat="43.14333" lon="0.14892">
        <ele>439</ele>
        <time>2022-06-28T10:52:38Z</time>
      </trkpt>
      <trkpt lat="43.1435" lon="0.1487">
        <ele>441</ele>
        <time>2022-06-28T10:53:13Z</time>
      </trkpt>
      <trkpt lat="43.14361" lon="0.14843">
        <ele>443</ele>
        <time>2022-06-28T10:53:43Z</time>
      </trkpt>
      <trkpt lat="43.14368" lon="0.14813">
        <ele>443</ele>
        <time>2022-06-28T10:54:10Z</time>
      </trkpt>
      <trkpt lat="43.14366" lon="0.14781">
        <ele>444</ele>
        <time>2022-06-28T10:54:51Z</time>
      </trkpt>
      <trkpt lat="43.1436" lon="0.14751">
        <ele>444</ele>
        <time>2022-06-28T10:55:13Z</time>
      </trkpt>
      <trkpt lat="43.14356" lon="0.1472">
        <ele>450</ele>
        <time>2022-06-28T10:55:40Z</time>
      </trkpt>
      <trkpt lat="43.14349" lon="0.1469">
        <ele>449</ele>
        <time>2022-06-28T10:56:14Z</time>
      </trkpt>
      <trkpt lat="43.14344" lon="0.1466">
        <ele>452</ele>
        <time>2022-06-28T10:56:41Z</time>
      </trkpt>
      <trkpt lat="43.14334" lon="0.14632">
        <ele>458</ele>
        <time>2022-06-28T10:58:17Z</time>
      </trkpt>
      <trkpt lat="43.1433" lon="0.14601">
        <ele>456</ele>
        <time>2022-06-28T10:59:02Z</time>
      </trkpt>
      <trkpt lat="43.14319" lon="0.14573">
        <ele>455</ele>
        <time>2022-06-28T10:59:33Z</time>
      </trkpt>
      <trkpt lat="43.14313" lon="0.14542">
        <ele>457</ele>
        <time>2022-06-28T11:00:10Z</time>
      </trkpt>
      <trkpt lat="43.14311" lon="0.14512">
        <ele>460</ele>
        <time>2022-06-28T11:00:37Z</time>
      </trkpt>
      <trkpt lat="43.14309" lon="0.1448">
        <ele>465</ele>
        <time>2022-06-28T11:01:13Z</time>
      </trkpt>
      <trkpt lat="43.14307" lon="0.14448">
        <ele>473</ele>
        <time>2022-06-28T11:01:36Z</time>
      </trkpt>
      <trkpt lat="43.14302" lon="0.14418">
        <ele>469</ele>
        <time>2022-06-28T11:02:00Z</time>
      </trkpt>
      <trkpt lat="43.14298" lon="0.14387">
        <ele>470</ele>
        <time>2022-06-28T11:02:55Z</time>
      </trkpt>
      <trkpt lat="43.1429" lon="0.14357">
        <ele>473</ele>
        <time>2022-06-28T11:03:18Z</time>
      </trkpt>
      <trkpt lat="43.14282" lon="0.14328">
        <ele>474</ele>
        <time>2022-06-28T11:03:46Z</time>
      </trkpt>
      <trkpt lat="43.14272" lon="0.143">
        <ele>476</ele>
        <time>2022-06-28T11:07:10Z</time>
      </trkpt>
      <trkpt lat="43.14259" lon="0.14275">
        <ele>479</ele>
        <time>2022-06-28T11:07:33Z</time>
      </trkpt>
      <trkpt lat="43.14259" lon="0.14243">
        <ele>480</ele>
        <time>2022-06-28T11:08:01Z</time>
      </trkpt>
      <trkpt lat="43.14256" lon="0.14212">
        <ele>482</ele>
        <time>2022-06-28T11:08:25Z</time>
      </trkpt>
      <trkpt lat="43.1425" lon="0.14182">
        <ele>491</ele>
        <time>2022-06-28T11:08:56Z</time>
      </trkpt>
      <trkpt lat="43.14233" lon="0.14159">
        <ele>492</ele>
        <time>2022-06-28T11:09:29Z</time>
      </trkpt>
      <trkpt lat="43.14223" lon="0.14131">
        <ele>493</ele>
        <time>2022-06-28T11:10:05Z</time>
      </trkpt>
      <trkpt lat="43.14221" lon="0.141">
        <ele>496</ele>
        <time>2022-06-28T11:10:32Z</time>
      </trkpt>
      <trkpt lat="43.14219" lon="0.14068">
        <ele>497</ele>
        <time>2022-06-28T11:10:59Z</time>
      </trkpt>
      <trkpt lat="43.14226" lon="0.14038">
        <ele>504</ele>
        <time>2022-06-28T11:11:26Z</time>
      </trkpt>
      <trkpt lat="43.14225" lon="0.14007">
        <ele>504</ele>
        <time>2022-06-28T11:11:52Z</time>
      </trkpt>
      <trkpt lat="43.14224" lon="0.13976">
        <ele>504</ele>
        <time>2022-06-28T11:12:39Z</time>
      </trkpt>
      <trkpt lat="43.14212" lon="0.13949">
        <ele>505</ele>
        <time>2022-06-28T11:13:03Z</time>
      </trkpt>
      <trkpt lat="43.14207" lon="0.13918">
        <ele>508</ele>
        <time>2022-06-28T11:13:41Z</time>
      </trkpt>
      <trkpt lat="43.14206" lon="0.13887">
        <ele>510</ele>
        <time>2022-06-28T11:14:09Z</time>
      </trkpt>
      <trkpt lat="43.14208" lon="0.13856">
        <ele>514</ele>
        <time>2022-06-28T11:15:09Z</time>
      </trkpt>
      <trkpt lat="43.14202" lon="0.13795">
        <ele>510</ele>
        <time>2022-06-28T11:16:24Z</time>
      </trkpt>
      <trkpt lat="43.14203" lon="0.13764">
        <ele>513</ele>
        <time>2022-06-28T11:16:46Z</time>
      </trkpt>
      <trkpt lat="43.14206" lon="0.13732">
        <ele>517</ele>
        <time>2022-06-28T11:17:11Z</time>
      </trkpt>
      <trkpt lat="43.14212" lon="0.13703">
        <ele>518</ele>
        <time>2022-06-28T11:17:33Z</time>
      </trkpt>
      <trkpt lat="43.14217" lon="0.13671">
        <ele>519</ele>
        <time>2022-06-28T11:17:59Z</time>
      </trkpt>
      <trkpt lat="43.14218" lon="0.13639">
        <ele>518</ele>
        <time>2022-06-28T11:18:22Z</time>
      </trkpt>
      <trkpt lat="43.1422" lon="0.13608">
        <ele>518</ele>
        <time>2022-06-28T11:18:52Z</time>
      </trkpt>
      <trkpt lat="43.14228" lon="0.13576">
        <ele>523</ele>
        <time>2022-06-28T11:20:57Z</time>
      </trkpt>
      <trkpt lat="43.14232" lon="0.13544">
        <ele>528</ele>
        <time>2022-06-28T11:21:17Z</time>
      </trkpt>
      <trkpt lat="43.14231" lon="0.13512">
        <ele>530</ele>
        <time>2022-06-28T11:21:39Z</time>
      </trkpt>
      <trkpt lat="43.14235" lon="0.13481">
        <ele>533</ele>
        <time>2022-06-28T11:21:59Z</time>
      </trkpt>
      <trkpt lat="43.14237" lon="0.13449">
        <ele>534</ele>
        <time>2022-06-28T11:22:24Z</time>
      </trkpt>
      <trkpt lat="43.14248" lon="0.13422">
        <ele>524</ele>
        <time>2022-06-28T11:22:56Z</time>
      </trkpt>
      <trkpt lat="43.14257" lon="0.13392">
        <ele>522</ele>
        <time>2022-06-28T11:23:22Z</time>
      </trkpt>
      <trkpt lat="43.14267" lon="0.13364">
        <ele>526</ele>
        <time>2022-06-28T11:23:42Z</time>
      </trkpt>
      <trkpt lat="43.14273" lon="0.13334">
        <ele>524</ele>
        <time>2022-06-28T11:24:03Z</time>
      </trkpt>
      <trkpt lat="43.14283" lon="0.13305">
        <ele>525</ele>
        <time>2022-06-28T11:24:27Z</time>
      </trkpt>
      <trkpt lat="43.14292" lon="0.13277">
        <ele>526</ele>
        <time>2022-06-28T11:25:00Z</time>
      </trkpt>
      <trkpt lat="43.143" lon="0.13247">
        <ele>526</ele>
        <time>2022-06-28T11:25:34Z</time>
      </trkpt>
      <trkpt lat="43.14309" lon="0.13218">
        <ele>527</ele>
        <time>2022-06-28T11:26:00Z</time>
      </trkpt>
      <trkpt lat="43.14325" lon="0.13195">
        <ele>524</ele>
        <time>2022-06-28T11:26:23Z</time>
      </trkpt>
      <trkpt lat="43.14313" lon="0.13168">
        <ele>525</ele>
        <time>2022-06-28T11:27:05Z</time>
      </trkpt>
      <trkpt lat="43.14308" lon="0.13138">
        <ele>523</ele>
        <time>2022-06-28T11:27:40Z</time>
      </trkpt>
      <trkpt lat="43.14293" lon="0.13115">
        <ele>521</ele>
        <time>2022-06-28T11:28:03Z</time>
      </trkpt>
      <trkpt lat="43.14285" lon="0.13085">
        <ele>520</ele>
        <time>2022-06-28T11:28:27Z</time>
      </trkpt>
      <trkpt lat="43.14287" lon="0.13054">
        <ele>520</ele>
        <time>2022-06-28T11:28:48Z</time>
      </trkpt>
      <trkpt lat="43.1429" lon="0.13022">
        <ele>521</ele>
        <time>2022-06-28T11:29:10Z</time>
      </trkpt>
      <trkpt lat="43.14297" lon="0.12993">
        <ele>518</ele>
        <time>2022-06-28T11:29:32Z</time>
      </trkpt>
      <trkpt lat="43.14313" lon="0.12935">
        <ele>516</ele>
        <time>2022-06-28T11:30:18Z</time>
      </trkpt>
      <trkpt lat="43.1432" lon="0.12905">
        <ele>511</ele>
        <time>2022-06-28T11:30:41Z</time>
      </trkpt>
      <trkpt lat="43.14333" lon="0.1288">
        <ele>508</ele>
        <time>2022-06-28T11:31:05Z</time>
      </trkpt>
      <trkpt lat="43.14339" lon="0.12849">
        <ele>509</ele>
        <time>2022-06-28T11:31:25Z</time>
      </trkpt>
      <trkpt lat="43.14353" lon="0.12825">
        <ele>508</ele>
        <time>2022-06-28T11:31:46Z</time>
      </trkpt>
      <trkpt lat="43.14372" lon="0.12804">
        <ele>510</ele>
        <time>2022-06-28T11:33:39Z</time>
      </trkpt>
      <trkpt lat="43.14379" lon="0.12774">
        <ele>505</ele>
        <time>2022-06-28T11:34:38Z</time>
      </trkpt>
      <trkpt lat="43.14392" lon="0.12749">
        <ele>504</ele>
        <time>2022-06-28T11:35:01Z</time>
      </trkpt>
      <trkpt lat="43.14407" lon="0.12725">
        <ele>503</ele>
        <time>2022-06-28T11:35:30Z</time>
      </trkpt>
      <trkpt lat="43.14424" lon="0.12703">
        <ele>501</ele>
        <time>2022-06-28T11:35:53Z</time>
      </trkpt>
      <trkpt lat="43.1444" lon="0.12682">
        <ele>502</ele>
        <time>2022-06-28T11:36:17Z</time>
      </trkpt>
      <trkpt lat="43.14457" lon="0.12661">
        <ele>501</ele>
        <time>2022-06-28T11:36:43Z</time>
      </trkpt>
      <trkpt lat="43.14471" lon="0.12636">
        <ele>496</ele>
        <time>2022-06-28T11:37:09Z</time>
      </trkpt>
      <trkpt lat="43.14487" lon="0.12612">
        <ele>497</ele>
        <time>2022-06-28T11:37:30Z</time>
      </trkpt>
      <trkpt lat="43.1449" lon="0.12581">
        <ele>492</ele>
        <time>2022-06-28T11:38:02Z</time>
      </trkpt>
      <trkpt lat="43.14501" lon="0.12553">
        <ele>492</ele>
        <time>2022-06-28T11:38:26Z</time>
      </trkpt>
      <trkpt lat="43.14513" lon="0.12525">
        <ele>494</ele>
        <time>2022-06-28T11:38:45Z</time>
      </trkpt>
      <trkpt lat="43.14526" lon="0.12499">
        <ele>496</ele>
        <time>2022-06-28T11:39:11Z</time>
      </trkpt>
      <trkpt lat="43.14539" lon="0.12474">
        <ele>494</ele>
        <time>2022-06-28T11:39:33Z</time>
      </trkpt>
      <trkpt lat="43.14552" lon="0.12448">
        <ele>487</ele>
        <time>2022-06-28T11:42:56Z</time>
      </trkpt>
      <trkpt lat="43.14569" lon="0.12427">
        <ele>484</ele>
        <time>2022-06-28T11:43:25Z</time>
      </trkpt>
      <trkpt lat="43.14584" lon="0.12403">
        <ele>482</ele>
        <time>2022-06-28T11:43:49Z</time>
      </trkpt>
      <trkpt lat="43.14589" lon="0.12373">
        <ele>483</ele>
        <time>2022-06-28T11:44:14Z</time>
      </trkpt>
      <trkpt lat="43.14595" lon="0.12342">
        <ele>477</ele>
        <time>2022-06-28T11:44:41Z</time>
      </trkpt>
      <trkpt lat="43.14589" lon="0.1228">
        <ele>465</ele>
        <time>2022-06-28T11:46:56Z</time>
      </trkpt>
      <trkpt lat="43.1458" lon="0.12251">
        <ele>463</ele>
        <time>2022-06-28T11:47:21Z</time>
      </trkpt>
      <trkpt lat="43.1457" lon="0.12223">
        <ele>466</ele>
        <time>2022-06-28T11:47:52Z</time>
      </trkpt>
      <trkpt lat="43.1455" lon="0.12207">
        <ele>467</ele>
        <time>2022-06-28T11:48:17Z</time>
      </trkpt>
      <trkpt lat="43.14528" lon="0.122">
        <ele>467</ele>
        <time>2022-06-28T11:48:37Z</time>
      </trkpt>
      <trkpt lat="43.14506" lon="0.12188">
        <ele>465</ele>
        <time>2022-06-28T11:49:35Z</time>
      </trkpt>
      <trkpt lat="43.14486" lon="0.12174">
        <ele>467</ele>
        <time>2022-06-28T11:51:50Z</time>
      </trkpt>
      <trkpt lat="43.14509" lon="0.12172">
        <ele>456</ele>
        <time>2022-06-28T11:52:41Z</time>
      </trkpt>
      <trkpt lat="43.14532" lon="0.12161">
        <ele>449</ele>
        <time>2022-06-28T11:53:10Z</time>
      </trkpt>
      <trkpt lat="43.1455" lon="0.12141">
        <ele>446</ele>
        <time>2022-06-28T11:53:32Z</time>
      </trkpt>
      <trkpt lat="43.14571" lon="0.12128">
        <ele>449</ele>
        <time>2022-06-28T11:54:25Z</time>
      </trkpt>
      <trkpt lat="43.14594" lon="0.12125">
        <ele>445</ele>
        <time>2022-06-28T11:55:02Z</time>
      </trkpt>
      <trkpt lat="43.14617" lon="0.1212">
        <ele>438</ele>
        <time>2022-06-28T11:55:28Z</time>
      </trkpt>
      <trkpt lat="43.1464" lon="0.1212">
        <ele>438</ele>
        <time>2022-06-28T11:55:55Z</time>
      </trkpt>
      <trkpt lat="43.14648" lon="0.12091">
        <ele>438</ele>
        <time>2022-06-28T11:56:35Z</time>
      </trkpt>
      <trkpt lat="43.14629" lon="0.12074">
        <ele>434</ele>
        <time>2022-06-28T11:56:54Z</time>
      </trkpt>
      <trkpt lat="43.14611" lon="0.12054">
        <ele>433</ele>
        <time>2022-06-28T11:57:17Z</time>
      </trkpt>
      <trkpt lat="43.14591" lon="0.12038">
        <ele>434</ele>
        <time>2022-06-28T11:57:40Z</time>
      </trkpt>
      <trkpt lat="43.14573" lon="0.12018">
        <ele>423</ele>
        <time>2022-06-28T11:58:09Z</time>
      </trkpt>
      <trkpt lat="43.14562" lon="0.1199">
        <ele>415</ele>
        <time>2022-06-28T11:58:39Z</time>
      </trkpt>
      <trkpt lat="43.14556" lon="0.1193">
        <ele>418</ele>
        <time>2022-06-28T11:59:31Z</time>
      </trkpt>
      <trkpt lat="43.14553" lon="0.11899">
        <ele>415</ele>
        <time>2022-06-28T11:59:53Z</time>
      </trkpt>
      <trkpt lat="43.14549" lon="0.11868">
        <ele>414</ele>
        <time>2022-06-28T12:00:15Z</time>
      </trkpt>
      <trkpt lat="43.14548" lon="0.11837">
        <ele>413</ele>
        <time>2022-06-28T12:00:36Z</time>
      </trkpt>
      <trkpt lat="43.14548" lon="0.11806">
        <ele>419</ele>
        <time>2022-06-28T12:00:58Z</time>
      </trkpt>
      <trkpt lat="43.14547" lon="0.11774">
        <ele>418</ele>
        <time>2022-06-28T12:01:22Z</time>
      </trkpt>
      <trkpt lat="43.14553" lon="0.11744">
        <ele>413</ele>
        <time>2022-06-28T12:02:06Z</time>
      </trkpt>
      <trkpt lat="43.14573" lon="0.1173">
        <ele>413</ele>
        <time>2022-06-28T12:03:21Z</time>
      </trkpt>
    </trkseg>
  </trk>
</gpx>